createdAt,value
2022-09-15T00:03:13.848Z,22.1
2022-09-15T00:08:50.391Z,22.1
2022-09-15T00:14:12.567Z,22.1
2022-09-15T00:19:53.137Z,22.1
2022-09-15T00:25:29.332Z,22.1
2022-09-15T00:31:06.258Z,22.1
2022-09-15T00:36:44.687Z,22.1
2022-09-15T00:42:21.609Z,22.1
2022-09-15T00:48:22.303Z,22.1
2022-09-15T00:54:00.893Z,22.1
2022-09-15T00:59:22.110Z,22.1
2022-09-15T01:04:59.045Z,22.1
2022-09-15T01:10:22.078Z,22.1
2022-09-15T01:15:58.750Z,22.1
2022-09-15T01:21:04.196Z,22.1
2022-09-15T01:26:31.157Z,22.1
2022-09-15T01:32:35.564Z,22.1
2022-09-15T01:38:11.922Z,22.1
2022-09-15T01:43:50.314Z,22.1
2022-09-15T01:49:11.855Z,22.1
2022-09-15T01:54:48.088Z,22.1
2022-09-15T02:00:26.132Z,22.1
2022-09-15T02:06:02.994Z,22.1
2022-09-15T02:11:23.985Z,22.1
2022-09-15T02:16:16.075Z,22.1
2022-09-15T02:21:37.667Z,22.1
2022-09-15T02:27:14.300Z,22.1
2022-09-15T02:32:57.293Z,22.2
2022-09-15T02:38:34.023Z,22.1
2022-09-15T02:44:11.403Z,22.1
2022-09-15T02:49:50.113Z,22.2
2022-09-15T02:55:27.462Z,22.2
2022-09-15T03:01:04.776Z,22.1
2022-09-15T03:06:29.993Z,22.2
2022-09-15T03:12:06.793Z,22.2
2022-09-15T03:17:28.949Z,22.2
2022-09-15T03:23:06.590Z,22.2
2022-09-15T03:28:44.331Z,22.1
2022-09-15T03:34:21.921Z,22.2
2022-09-15T03:40:02.573Z,22.1
2022-09-15T03:45:43.981Z,22.1
2022-09-15T03:51:21.034Z,22
2022-09-15T03:56:59.026Z,22
2022-09-15T04:02:21.691Z,22
2022-09-15T04:08:03.109Z,22
2022-09-15T04:13:45.210Z,22
2022-09-15T04:19:23.630Z,21.9
2022-09-15T04:25:03.708Z,21.9
2022-09-15T04:30:44.794Z,21.9
2022-09-15T04:36:21.605Z,21.9
2022-09-15T04:41:58.260Z,21.9
2022-09-15T04:47:36.800Z,21.9
2022-09-15T04:53:16.446Z,21.9
2022-09-15T04:58:52.829Z,21.8
2022-09-15T05:04:31.867Z,21.8
2022-09-15T05:10:13.530Z,21.8
2022-09-15T05:15:50.386Z,21.8
2022-09-15T05:21:29.102Z,21.8
2022-09-15T05:27:11.890Z,21.8
2022-09-15T05:32:50.096Z,21.8
2022-09-15T05:38:28.421Z,21.8
2022-09-15T05:44:06.512Z,21.8
2022-09-15T05:49:43.606Z,21.8
2022-09-15T05:55:21.849Z,21.8
2022-09-15T06:00:58.632Z,21.8
2022-09-15T06:06:35.760Z,21.8
2022-09-15T06:12:17.695Z,21.8
2022-09-15T06:17:55.609Z,21.8
2022-09-15T06:23:32.384Z,21.8
2022-09-15T06:29:11.963Z,21.8
2022-09-15T06:34:49.110Z,21.8
2022-09-15T06:40:26.532Z,21.8
2022-09-15T06:46:30.633Z,21.8
2022-09-15T06:52:27.208Z,21.8
2022-09-15T06:58:04.253Z,21.8
2022-09-15T07:03:46.381Z,21.9
2022-09-15T07:09:24.410Z,21.9
2022-09-15T07:15:06.016Z,21.8
2022-09-15T07:20:44.656Z,21.9
2022-09-15T07:26:22.337Z,21.9
2022-09-15T07:32:04.024Z,21.9
2022-09-15T07:37:44.567Z,21.9
2022-09-15T07:43:26.001Z,21.9
2022-09-15T07:49:03.724Z,21.9
2022-09-15T07:54:42.306Z,21.9
2022-09-15T08:00:04.452Z,21.9
2022-09-15T08:05:45.541Z,21.9
2022-09-15T08:11:34.937Z,21.9
2022-09-15T08:17:12.032Z,22
2022-09-15T08:22:18.476Z,22
2022-09-15T08:27:41.178Z,22
2022-09-15T08:33:19.233Z,22
2022-09-15T08:38:56.272Z,22
2022-09-15T08:44:40.716Z,22
2022-09-15T08:50:42.318Z,22.1
2022-09-15T08:56:21.629Z,22.1
2022-09-15T09:02:00.438Z,22.1
2022-09-15T09:07:38.555Z,22.1
2022-09-15T09:12:44.739Z,22.1
2022-09-15T09:18:24.164Z,22.1
2022-09-15T09:24:03.417Z,22.1
2022-09-15T09:29:47.690Z,22.1
2022-09-15T09:35:11.759Z,22.1
2022-09-15T09:40:50.191Z,22.1
2022-09-15T09:46:27.778Z,22.1
2022-09-15T09:52:06.938Z,22.2
2022-09-15T09:57:44.466Z,22.1
2022-09-15T10:03:22.087Z,22.1
2022-09-15T10:09:01.272Z,22.2
2022-09-15T10:14:39.094Z,22.3
2022-09-15T10:20:17.915Z,22.3
2022-09-15T10:25:59.378Z,22.3
2022-09-15T10:31:06.978Z,22.3
2022-09-15T10:36:45.415Z,22.3
2022-09-15T10:42:24.187Z,22.3
2022-09-15T10:48:03.087Z,22.3
2022-09-15T10:53:40.412Z,22.3
2022-09-15T10:59:42.296Z,22.3
2022-09-15T11:05:22.584Z,22.3
2022-09-15T11:11:00.059Z,22.3
2022-09-15T11:16:44.289Z,22.4
2022-09-15T11:22:22.412Z,22.4
2022-09-15T11:27:59.979Z,22.4
2022-09-15T11:33:39.027Z,22.4
2022-09-15T11:39:20.167Z,22.4
2022-09-15T11:44:58.024Z,22.4
2022-09-15T11:50:36.245Z,22.4
2022-09-15T11:56:13.801Z,22.4
2022-09-15T12:01:56.817Z,22.4
2022-09-15T12:07:20.029Z,22.4
2022-09-15T12:13:03.653Z,22.4
2022-09-15T12:19:07.497Z,22.5
2022-09-15T12:24:45.734Z,22.5
2022-09-15T12:30:27.140Z,22.5
2022-09-15T12:36:04.394Z,22.5
2022-09-15T12:41:27.887Z,22.5
2022-09-15T12:47:05.867Z,22.5
2022-09-15T12:52:43.470Z,22.5
2022-09-15T12:58:22.980Z,22.5
2022-09-15T13:04:27.448Z,22.5
2022-09-15T13:10:10.224Z,22.6
2022-09-15T13:15:48.607Z,22.6
2022-09-15T13:21:26.929Z,22.6
2022-09-15T13:27:03.690Z,22.6
2022-09-15T13:32:46.290Z,22.6
2022-09-15T13:41:14.039Z,22.6
2022-09-15T13:46:56.092Z,22.6
2022-09-15T13:52:34.534Z,22.6
2022-09-15T13:59:49.420Z,22.7
2022-09-15T14:05:36.420Z,22.7
2022-09-15T14:11:19.830Z,22.8
2022-09-15T14:17:03.285Z,22.8
2022-09-15T14:22:45.202Z,22.8
2022-09-15T14:28:25.598Z,22.8
2022-09-15T14:34:09.923Z,22.8
2022-09-15T14:39:50.650Z,22.8
